Time;durP1;ratioP1;P1;durP2;ratioP2;P2;SDS_P1;SDS_P2;PMS_P1;PMS_P2;Temp;Humidity;BMP_temperature;BMP_pressure;BME280_temperature;BME280_humidity;BME280_pressure;Samples;Min_cycle;Max_cycle;Signal;HPM_P1;HPM_P2
2022/08/20 00:00:52;;;;;;;7.20;6.60;;;20.70;99.90;;;;;;614326;234;26576;-67
2022/08/20 00:03:20;;;;;;;6.53;6.03;;;20.70;99.90;;;;;;614191;234;26599;-68
2022/08/20 00:05:48;;;;;;;7.18;6.57;;;20.60;99.90;;;;;;614022;234;26587;-71
2022/08/20 00:08:15;;;;;;;7.62;7.03;;;20.60;99.90;;;;;;614052;234;26588;-68
2022/08/20 00:10:43;;;;;;;7.90;7.00;;;20.50;99.90;;;;;;614148;234;26600;-69
2022/08/20 00:13:12;;;;;;;7.95;7.18;;;20.50;99.90;;;;;;614091;234;26605;-68
2022/08/20 00:15:40;;;;;;;9.82;7.30;;;20.40;99.90;;;;;;613882;234;26858;-68
2022/08/20 00:18:07;;;;;;;8.50;7.70;;;20.40;99.90;;;;;;613466;234;26666;-68
2022/08/20 00:20:34;;;;;;;9.43;7.20;;;20.40;99.90;;;;;;613897;234;26789;-68
2022/08/20 00:23:01;;;;;;;10.70;7.03;;;20.40;99.90;;;;;;608982;234;26646;-69
2022/08/20 00:25:29;;;;;;;7.80;7.00;;;20.50;99.90;;;;;;611732;234;26875;-68
2022/08/20 00:27:56;;;;;;;7.12;6.45;;;20.40;99.90;;;;;;604913;234;26671;-69
2022/08/20 00:30:23;;;;;;;7.03;6.43;;;20.40;99.90;;;;;;610953;234;26957;-69
2022/08/20 00:32:52;;;;;;;7.53;6.82;;;20.40;99.90;;;;;;610568;234;26697;-69
2022/08/20 00:35:20;;;;;;;7.72;6.75;;;20.50;99.90;;;;;;609064;234;26877;-69
2022/08/20 00:37:48;;;;;;;7.05;6.47;;;20.40;99.90;;;;;;604345;234;26888;-69
2022/08/20 00:40:15;;;;;;;7.85;7.18;;;20.50;99.90;;;;;;608019;234;26844;-69
2022/08/20 00:42:43;;;;;;;8.15;7.45;;;20.50;99.90;;;;;;609404;234;26633;-69
2022/08/20 00:45:10;;;;;;;8.02;7.32;;;20.50;99.90;;;;;;606174;234;26877;-67
2022/08/20 00:47:41;;;;;;;7.87;7.18;;;20.50;99.90;;;;;;603856;234;26665;-69
2022/08/20 00:50:09;;;;;;;6.93;6.40;;;20.50;99.90;;;;;;612162;234;26821;-66
2022/08/20 00:52:37;;;;;;;7.50;6.80;;;20.40;99.90;;;;;;610253;234;26810;-66
2022/08/20 00:55:05;;;;;;;7.70;7.00;;;20.40;99.90;;;;;;608966;233;26620;-66
2022/08/20 00:57:36;;;;;;;8.13;7.35;;;20.40;99.90;;;;;;610499;234;26597;-67
2022/08/20 01:00:03;;;;;;;7.55;6.53;;;20.40;99.90;;;;;;609443;234;26830;-67
2022/08/20 01:02:31;;;;;;;7.10;6.50;;;20.40;99.90;;;;;;609704;234;26567;-66
2022/08/20 01:04:58;;;;;;;8.05;7.35;;;20.40;99.90;;;;;;609043;234;27131;-67
2022/08/20 01:07:33;;;;;;;7.32;6.72;;;20.40;99.90;;;;;;608699;234;26610;-68
2022/08/20 01:10:01;;;;;;;7.55;6.85;;;20.50;99.90;;;;;;608340;234;26798;-68
2022/08/20 01:12:28;;;;;;;7.70;7.10;;;20.50;99.90;;;;;;606687;234;26602;-67
2022/08/20 01:14:57;;;;;;;10.88;7.35;;;20.60;99.90;;;;;;607959;234;26641;-67
2022/08/20 01:17:24;;;;;;;7.32;6.72;;;20.50;99.90;;;;;;607664;234;26637;-67
2022/08/20 01:20:00;;;;;;;8.10;7.00;;;20.50;99.90;;;;;;607706;234;26877;-67
2022/08/20 01:27:33;;;;;;;8.32;7.62;;;20.50;99.90;;;;;;631142;226;35332;-67
2022/08/20 01:30:00;;;;;;;7.37;6.78;;;20.60;99.90;;;;;;616101;231;26630;-67
2022/08/20 01:32:27;;;;;;;7.68;7.05;;;20.50;99.90;;;;;;618829;230;26816;-67
2022/08/20 01:34:55;;;;;;;8.07;7.32;;;20.50;99.90;;;;;;619804;230;26624;-68
2022/08/20 01:37:23;;;;;;;7.22;6.62;;;20.50;99.90;;;;;;615566;231;26644;-65
2022/08/20 01:39:50;;;;;;;7.97;7.28;;;20.50;99.90;;;;;;618630;230;26641;-66
2022/08/20 01:42:18;;;;;;;7.75;7.05;;;20.40;99.90;;;;;;616686;230;26787;-66
2022/08/20 01:44:45;;;;;;;7.55;6.95;;;20.40;99.90;;;;;;616115;231;26654;-66
2022/08/20 01:47:13;;;;;;;7.35;6.75;;;20.50;99.90;;;;;;619226;230;26623;-66
2022/08/20 01:49:42;;;;;;;7.18;6.57;;;20.40;99.90;;;;;;616352;230;26915;-66
2022/08/20 01:52:08;;;;;;;7.28;6.57;;;20.40;99.90;;;;;;616293;230;26574;-67
2022/08/20 01:54:36;;;;;;;8.02;7.28;;;20.30;99.90;;;;;;618564;230;26613;-67
2022/08/20 01:57:03;;;;;;;7.20;6.57;;;20.30;99.90;;;;;;615663;230;26603;-67
2022/08/20 01:59:31;;;;;;;7.00;6.40;;;20.40;99.90;;;;;;615933;231;26604;-67
2022/08/20 02:01:59;;;;;;;7.32;6.70;;;20.40;99.90;;;;;;616670;230;26640;-66
2022/08/20 02:04:25;;;;;;;7.25;6.55;;;20.40;99.90;;;;;;615312;231;26574;-66
2022/08/20 02:06:53;;;;;;;7.68;6.53;;;20.20;99.90;;;;;;616280;228;26822;-66
2022/08/20 02:09:20;;;;;;;7.22;6.62;;;20.20;99.90;;;;;;616647;230;26579;-66
2022/08/20 02:11:47;;;;;;;7.32;6.70;;;20.10;99.90;;;;;;617827;230;26803;-66
2022/08/20 02:14:14;;;;;;;8.00;6.82;;;20.10;99.90;;;;;;615925;231;26629;-67
2022/08/20 02:16:41;;;;;;;6.20;5.70;;;20.10;99.90;;;;;;614942;231;26766;-67
2022/08/20 02:19:10;;;;;;;6.87;6.37;;;20.10;99.90;;;;;;616739;230;26617;-67
2022/08/20 02:21:36;;;;;;;7.22;6.62;;;20.00;99.90;;;;;;616303;231;26915;-66
2022/08/20 02:24:04;;;;;;;7.00;6.30;;;19.90;99.90;;;;;;617725;230;26590;-66
2022/08/20 02:26:31;;;;;;;6.90;6.30;;;19.80;99.90;;;;;;615589;231;26572;-65
2022/08/20 02:28:59;;;;;;;6.62;6.03;;;19.60;99.90;;;;;;617011;230;27311;-66
2022/08/20 02:31:27;;;;;;;5.97;5.57;;;19.50;99.90;;;;;;616853;231;26564;-66
2022/08/20 02:33:55;;;;;;;6.22;5.72;;;19.50;99.90;;;;;;615731;231;26646;-66
2022/08/20 02:36:26;;;;;;;6.30;5.80;;;19.40;99.90;;;;;;616201;230;26631;-66
2022/08/20 02:38:52;;;;;;;6.20;5.70;;;19.40;99.90;;;;;;617825;231;26565;-66
2022/08/20 02:41:21;;;;;;;5.47;5.07;;;19.40;99.90;;;;;;615203;231;26600;-67
2022/08/20 02:43:50;;;;;;;6.25;5.65;;;19.50;99.90;;;;;;617885;230;26571;-67
2022/08/20 02:46:18;;;;;;;5.70;5.30;;;19.50;99.90;;;;;;617191;231;26542;-66
2022/08/20 02:48:44;;;;;;;5.55;5.05;;;19.40;99.90;;;;;;617150;230;26645;-66
2022/08/20 02:51:12;;;;;;;5.45;5.05;;;19.50;99.90;;;;;;616147;231;26559;-66
2022/08/20 02:53:41;;;;;;;5.78;5.30;;;19.50;99.90;;;;;;616155;231;26600;-66
2022/08/20 02:56:08;;;;;;;5.45;5.05;;;19.50;99.90;;;;;;616505;231;26589;-66
2022/08/20 02:58:36;;;;;;;5.55;5.15;;;19.50;99.90;;;;;;614440;233;26598;-67
2022/08/20 03:01:03;;;;;;;6.07;5.68;;;19.50;99.90;;;;;;614860;231;26821;-66
2022/08/20 03:03:30;;;;;;;5.93;5.53;;;19.50;99.90;;;;;;615025;231;26550;-67
2022/08/20 03:05:57;;;;;;;5.90;5.40;;;19.60;99.90;;;;;;617127;231;26799;-66
2022/08/20 03:08:24;;;;;;;5.70;5.20;;;19.60;99.90;;;;;;616516;230;26574;-66
2022/08/20 03:10:52;;;;;;;6.05;5.55;;;19.60;99.90;;;;;;615991;231;26563;-65
2022/08/20 03:13:19;;;;;;;5.85;5.35;;;19.50;99.90;;;;;;614903;231;27138;-66
2022/08/20 03:15:51;;;;;;;6.00;5.60;;;19.60;99.90;;;;;;615717;231;26560;-66
2022/08/20 03:18:19;;;;;;;5.20;4.82;;;19.60;99.90;;;;;;613910;231;26551;-66
2022/08/20 03:20:46;;;;;;;5.93;5.45;;;19.60;99.90;;;;;;616536;231;26561;-66
2022/08/20 03:23:13;;;;;;;4.70;4.40;;;19.60;99.90;;;;;;617624;230;26587;-66
2022/08/20 03:25:41;;;;;;;5.47;5.07;;;19.60;99.90;;;;;;616076;231;26568;-66
2022/08/20 03:28:09;;;;;;;6.03;5.45;;;19.70;99.90;;;;;;618406;231;26644;-66
2022/08/20 03:30:36;;;;;;;5.32;4.93;;;19.60;99.90;;;;;;615294;231;26537;-65
2022/08/20 03:33:05;;;;;;;5.90;5.40;;;19.60;99.90;;;;;;617758;231;26618;-65
2022/08/20 03:35:32;;;;;;;6.70;6.10;;;19.60;99.90;;;;;;615997;231;26613;-66
2022/08/20 03:37:59;;;;;;;6.55;5.95;;;19.70;99.90;;;;;;614837;231;26814;-66
2022/08/20 03:40:27;;;;;;;6.35;5.82;;;19.60;99.90;;;;;;617885;228;26599;-67
2022/08/20 03:42:54;;;;;;;7.37;6.68;;;19.70;99.90;;;;;;614541;231;26806;-66
2022/08/20 03:45:21;;;;;;;6.43;5.87;;;19.70;99.90;;;;;;616148;231;26551;-66
2022/08/20 03:47:48;;;;;;;6.50;5.90;;;19.70;99.90;;;;;;617958;231;26558;-66
2022/08/20 03:50:16;;;;;;;7.65;6.95;;;19.80;99.90;;;;;;620590;229;26632;-66
2022/08/20 03:52:44;;;;;;;6.70;6.20;;;19.80;99.90;;;;;;617295;230;26567;-66
2022/08/20 03:55:12;;;;;;;6.10;5.65;;;19.80;99.90;;;;;;617632;227;26586;-66
2022/08/20 03:57:44;;;;;;;7.70;6.53;;;19.90;99.90;;;;;;618133;230;26613;-66
2022/08/20 04:00:13;;;;;;;6.72;6.12;;;19.80;99.90;;;;;;615735;231;26635;-66
2022/08/20 04:02:40;;;;;;;6.80;6.20;;;19.80;99.90;;;;;;617161;230;26643;-66
2022/08/20 04:05:09;;;;;;;6.65;6.15;;;19.80;99.90;;;;;;615394;231;26868;-66
2022/08/20 04:07:36;;;;;;;8.85;6.78;;;19.90;99.90;;;;;;616017;231;26808;-66
2022/08/20 04:10:03;;;;;;;7.22;6.60;;;19.80;99.90;;;;;;616362;231;26564;-66
2022/08/20 04:12:30;;;;;;;7.62;6.93;;;19.80;99.90;;;;;;617263;230;26560;-67
2022/08/20 04:14:58;;;;;;;8.23;7.53;;;19.90;99.90;;;;;;616854;231;26847;-67
2022/08/20 04:17:26;;;;;;;7.40;6.70;;;19.90;99.90;;;;;;615256;231;26604;-66
2022/08/20 04:19:52;;;;;;;7.40;6.75;;;19.90;99.90;;;;;;614340;233;26811;-66
2022/08/20 04:22:19;;;;;;;7.47;6.87;;;19.90;99.90;;;;;;615260;231;26564;-66
2022/08/20 04:24:46;;;;;;;8.30;7.50;;;19.90;99.90;;;;;;618719;229;26581;-67
2022/08/20 04:27:14;;;;;;;7.30;6.70;;;19.80;99.90;;;;;;614545;231;26567;-67
2022/08/20 04:29:43;;;;;;;7.57;6.97;;;19.90;99.90;;;;;;612666;231;26609;-66
2022/08/20 04:32:11;;;;;;;7.72;7.03;;;19.90;99.90;;;;;;612454;234;26556;-67
2022/08/20 04:34:39;;;;;;;8.18;7.37;;;19.90;99.90;;;;;;612390;235;26632;-67
2022/08/20 04:37:06;;;;;;;9.93;7.10;;;19.90;99.90;;;;;;612453;234;26626;-67
2022/08/20 04:39:34;;;;;;;7.40;6.80;;;20.00;99.90;;;;;;612427;233;26562;-67
2022/08/20 04:42:01;;;;;;;7.53;6.82;;;19.90;99.90;;;;;;612462;234;26569;-67
2022/08/20 04:44:29;;;;;;;7.85;7.05;;;20.00;99.90;;;;;;612499;234;26574;-67
2022/08/20 04:46:56;;;;;;;7.12;6.50;;;20.00;99.90;;;;;;612498;233;26864;-67
2022/08/20 04:49:25;;;;;;;6.78;6.18;;;20.00;99.90;;;;;;612341;235;26621;-67
2022/08/20 04:51:50;;;;;;;7.37;6.78;;;20.10;99.90;;;;;;612334;235;26849;-67
2022/08/20 04:54:17;;;;;;;7.22;6.53;;;20.10;99.90;;;;;;612491;235;26641;-67
2022/08/20 04:56:47;;;;;;;7.30;6.70;;;20.00;99.90;;;;;;612470;234;27324;-65
2022/08/20 04:59:12;;;;;;;7.03;6.45;;;20.10;99.90;;;;;;612370;235;26547;-67
2022/08/20 05:01:39;;;;;;;7.03;6.43;;;20.00;99.90;;;;;;613936;232;26806;-66
2022/08/20 05:04:06;;;;;;;6.95;6.43;;;20.00;99.90;;;;;;613684;234;26599;-66
2022/08/20 05:06:33;;;;;;;7.97;7.28;;;20.10;99.90;;;;;;613401;233;26803;-65
2022/08/20 05:09:01;;;;;;;7.70;7.07;;;20.10;99.90;;;;;;613335;232;26555;-65
2022/08/20 05:11:28;;;;;;;7.18;6.47;;;20.10;99.90;;;;;;613106;233;26885;-66
2022/08/20 05:13:56;;;;;;;7.07;6.47;;;20.10;99.90;;;;;;613049;233;26595;-66
2022/08/20 05:16:24;;;;;;;7.45;6.75;;;20.10;99.90;;;;;;613030;234;26663;-67
2022/08/20 05:18:52;;;;;;;7.22;6.53;;;20.10;99.90;;;;;;612893;234;26589;-65
2022/08/20 05:21:20;;;;;;;7.25;6.65;;;20.20;99.90;;;;;;612685;233;26578;-65
2022/08/20 05:23:47;;;;;;;7.57;6.87;;;20.20;99.90;;;;;;612699;233;26576;-66
2022/08/20 05:26:14;;;;;;;7.07;6.47;;;20.20;99.90;;;;;;612666;234;26629;-65
2022/08/20 05:28:42;;;;;;;7.35;6.75;;;20.20;99.90;;;;;;612808;235;26587;-66
2022/08/20 05:31:10;;;;;;;7.55;6.95;;;20.20;99.90;;;;;;612669;234;26560;-66
2022/08/20 05:33:38;;;;;;;7.28;6.68;;;20.10;99.90;;;;;;612770;235;26572;-66
2022/08/20 05:36:06;;;;;;;6.55;6.00;;;20.10;99.90;;;;;;612731;233;26597;-66
2022/08/20 05:38:33;;;;;;;7.68;6.87;;;20.10;99.90;;;;;;612515;233;26609;-66
2022/08/20 05:41:00;;;;;;;6.85;6.35;;;20.20;99.90;;;;;;612392;233;27268;-66
2022/08/20 05:43:28;;;;;;;6.90;6.40;;;20.20;99.90;;;;;;612455;233;26608;-65
2022/08/20 05:45:55;;;;;;;6.97;6.37;;;20.10;99.90;;;;;;612476;228;26822;-66
2022/08/20 05:48:24;;;;;;;7.20;6.60;;;20.20;99.90;;;;;;612454;233;26619;-66
2022/08/20 05:50:53;;;;;;;7.40;6.70;;;20.20;99.90;;;;;;612344;233;26561;-66
2022/08/20 05:53:19;;;;;;;7.15;6.45;;;20.30;99.90;;;;;;612284;235;26544;-66
2022/08/20 05:55:48;;;;;;;7.15;6.55;;;20.40;99.90;;;;;;612481;228;26581;-66
2022/08/20 05:58:18;;;;;;;7.47;6.80;;;20.30;99.90;;;;;;612394;233;26612;-67
2022/08/20 06:00:46;;;;;;;7.28;6.68;;;20.40;99.90;;;;;;612380;235;26945;-66
2022/08/20 06:05:46;;;;;;;8.40;7.37;;;20.50;99.90;;;;;;612472;233;26608;-66
2022/08/20 06:08:15;;;;;;;9.77;7.80;;;20.40;99.90;;;;;;612410;233;26610;-66
2022/08/20 06:10:42;;;;;;;7.57;6.85;;;20.40;99.90;;;;;;612756;234;26609;-66
2022/08/20 06:13:09;;;;;;;8.02;7.32;;;20.40;99.90;;;;;;614165;232;26770;-66
2022/08/20 06:15:36;;;;;;;8.13;7.05;;;20.30;99.90;;;;;;613559;232;26630;-66
2022/08/20 06:18:07;;;;;;;7.75;7.05;;;20.30;99.90;;;;;;613387;232;27197;-66
2022/08/20 06:20:35;;;;;;;8.00;7.30;;;20.30;99.90;;;;;;613386;234;26569;-66
2022/08/20 06:23:02;;;;;;;7.60;6.90;;;20.40;99.90;;;;;;612925;234;26603;-66
2022/08/20 06:25:32;;;;;;;6.85;6.25;;;20.50;99.90;;;;;;612995;234;26659;-66
2022/08/20 06:28:00;;;;;;;7.60;7.00;;;20.50;99.90;;;;;;613036;233;26604;-66
2022/08/20 06:30:28;;;;;;;6.85;6.35;;;20.60;99.90;;;;;;612902;235;26632;-66
2022/08/20 06:32:55;;;;;;;7.87;6.82;;;20.60;99.90;;;;;;612770;234;26805;-66
2022/08/20 06:35:22;;;;;;;7.47;6.82;;;20.70;99.90;;;;;;612794;233;26582;-66
2022/08/20 06:37:51;;;;;;;7.30;6.80;;;20.70;99.90;;;;;;612820;233;26817;-66
2022/08/20 06:40:18;;;;;;;7.28;6.68;;;20.70;99.90;;;;;;612703;234;26783;-66
2022/08/20 06:42:46;;;;;;;7.82;7.12;;;20.80;99.90;;;;;;612619;231;26531;-66
2022/08/20 06:45:15;;;;;;;6.85;6.35;;;20.80;99.90;;;;;;612779;233;26588;-66
2022/08/20 06:47:42;;;;;;;7.25;6.70;;;20.90;99.90;;;;;;612633;235;26556;-66
2022/08/20 06:50:12;;;;;;;8.13;7.37;;;20.80;99.90;;;;;;612347;235;26615;-66
2022/08/20 06:52:38;;;;;;;6.85;6.25;;;20.80;99.90;;;;;;612290;235;26612;-66
2022/08/20 06:55:06;;;;;;;8.00;7.37;;;20.80;99.90;;;;;;612468;235;26686;-66
2022/08/20 06:57:33;;;;;;;7.10;6.50;;;20.70;99.90;;;;;;612502;233;26568;-66
2022/08/20 07:00:01;;;;;;;7.03;6.45;;;20.80;99.90;;;;;;612518;233;26828;-66
2022/08/20 07:02:28;;;;;;;8.15;7.35;;;20.90;99.90;;;;;;612445;235;26625;-66
2022/08/20 07:04:55;;;;;;;7.75;7.05;;;21.00;99.90;;;;;;612427;233;26899;-66
2022/08/20 07:07:22;;;;;;;7.32;6.62;;;20.90;99.90;;;;;;612456;235;26592;-66
2022/08/20 07:09:50;;;;;;;7.82;7.10;;;20.80;99.90;;;;;;612483;235;26595;-66
2022/08/20 07:12:17;;;;;;;7.10;6.50;;;20.60;99.90;;;;;;612448;233;26641;-66
2022/08/20 07:14:45;;;;;;;7.68;6.97;;;20.60;99.90;;;;;;612432;233;26584;-65
2022/08/20 07:17:13;;;;;;;7.80;7.20;;;20.60;99.90;;;;;;612509;235;26630;-66
2022/08/20 07:19:41;;;;;;;7.07;6.47;;;20.60;99.90;;;;;;612392;234;26624;-66
2022/08/20 07:22:08;;;;;;;7.57;6.87;;;20.60;99.90;;;;;;612497;233;26578;-66
2022/08/20 07:24:37;;;;;;;7.10;6.53;;;20.60;99.90;;;;;;613800;232;26651;-67
2022/08/20 07:27:04;;;;;;;7.18;6.57;;;20.70;99.90;;;;;;613745;233;26612;-67
2022/08/20 07:32:33;;;;;;;7.57;6.87;;;20.50;99.90;;;;;;613414;234;26563;-67
2022/08/20 07:34:31;;;;;;;7.70;7.03;;;20.60;99.90;;;;;;613065;233;26636;-67
2022/08/20 07:36:59;;;;;;;7.15;6.60;;;20.60;99.90;;;;;;613090;233;26840;-67
2022/08/20 07:39:25;;;;;;;7.87;7.25;;;20.50;99.90;;;;;;612899;233;26610;-67
2022/08/20 07:42:02;;;;;;;6.70;6.10;;;20.40;99.90;;;;;;613630;233;26839;-67
2022/08/20 07:44:21;;;;;;;7.10;6.60;;;20.40;99.90;;;;;;616143;230;26634;-68
2022/08/20 07:46:47;;;;;;;10.73;7.68;;;20.60;99.90;;;;;;617274;230;26802;-66
2022/08/20 07:49:14;;;;;;;8.32;7.55;;;20.60;99.90;;;;;;616003;231;26602;-66
2022/08/20 07:51:41;;;;;;;8.50;7.80;;;20.60;99.90;;;;;;615978;231;26839;-66
2022/08/20 07:54:08;;;;;;;8.32;7.57;;;20.60;99.90;;;;;;615384;231;26587;-66
2022/08/20 07:56:37;;;;;;;9.35;7.75;;;20.60;99.90;;;;;;617554;230;26568;-66
2022/08/20 07:59:05;;;;;;;9.13;8.23;;;20.60;99.90;;;;;;615904;231;26582;-66
2022/08/20 08:01:32;;;;;;;8.80;8.00;;;20.60;99.90;;;;;;618451;231;26613;-66
2022/08/20 08:04:00;;;;;;;9.60;8.68;;;20.60;99.90;;;;;;615801;231;26584;-66
2022/08/20 08:06:27;;;;;;;8.73;7.90;;;20.60;99.90;;;;;;615370;231;26569;-66
2022/08/20 08:08:55;;;;;;;8.15;7.30;;;20.80;99.90;;;;;;616177;227;26860;-66
2022/08/20 08:11:22;;;;;;;8.65;7.85;;;20.90;99.90;;;;;;615843;231;26533;-66
2022/08/20 08:13:49;;;;;;;8.50;7.70;;;20.80;99.90;;;;;;616736;231;26840;-66
2022/08/20 08:16:16;;;;;;;7.78;7.07;;;20.70;99.90;;;;;;614226;226;26572;-66
2022/08/20 08:18:43;;;;;;;9.40;8.45;;;20.80;99.90;;;;;;614204;233;26561;-65
2022/08/20 08:21:11;;;;;;;8.00;7.30;;;21.00;99.90;;;;;;616661;228;26629;-65
2022/08/20 08:23:43;;;;;;;8.60;7.80;;;21.00;99.90;;;;;;615329;227;26659;-66
2022/08/20 08:26:06;;;;;;;8.43;7.72;;;21.00;99.90;;;;;;617057;231;26566;-66
2022/08/20 08:28:35;;;;;;;8.13;7.43;;;21.20;99.90;;;;;;614939;231;26553;-66
2022/08/20 08:31:02;;;;;;;7.93;7.22;;;21.30;99.90;;;;;;615580;231;26567;-66
2022/08/20 08:33:31;;;;;;;6.57;6.05;;;21.20;99.90;;;;;;618743;231;26632;-65
2022/08/20 08:36:02;;;;;;;9.00;8.10;;;21.30;99.90;;;;;;618074;229;26633;-65
2022/08/20 08:38:26;;;;;;;8.88;7.97;;;21.30;99.90;;;;;;613432;234;26614;-65
2022/08/20 08:40:54;;;;;;;10.88;8.93;;;21.30;99.90;;;;;;616069;232;27297;-65
2022/08/20 08:43:24;;;;;;;9.57;8.45;;;21.20;99.90;;;;;;616579;231;26568;-65
2022/08/20 08:45:53;;;;;;;9.25;8.25;;;21.30;99.90;;;;;;619278;231;26606;-69
2022/08/20 08:48:21;;;;;;;8.95;8.00;;;21.40;99.90;;;;;;612934;234;26619;-68
2022/08/20 08:50:49;;;;;;;8.80;8.00;;;21.40;99.90;;;;;;612874;233;26840;-67
2022/08/20 08:53:18;;;;;;;9.10;8.18;;;21.40;99.90;;;;;;616082;228;26539;-67
2022/08/20 08:55:45;;;;;;;10.25;8.55;;;21.40;99.90;;;;;;615889;233;26823;-67
2022/08/20 08:58:13;;;;;;;12.30;8.82;;;21.40;99.90;;;;;;615988;233;26612;-67
2022/08/20 09:00:40;;;;;;;9.32;8.32;;;21.40;99.90;;;;;;615898;233;26935;-67
2022/08/20 09:03:08;;;;;;;9.55;8.38;;;21.50;99.90;;;;;;615894;232;26599;-67
2022/08/20 09:05:37;;;;;;;9.35;8.48;;;21.60;99.90;;;;;;616232;232;26611;-67
2022/08/20 09:08:03;;;;;;;9.30;8.43;;;21.70;99.90;;;;;;616011;233;26846;-67
2022/08/20 09:10:30;;;;;;;9.30;8.32;;;21.70;99.90;;;;;;616150;233;26601;-68
2022/08/20 09:12:58;;;;;;;8.85;8.02;;;22.00;99.90;;;;;;616015;228;26831;-67
2022/08/20 09:15:25;;;;;;;8.77;7.97;;;22.20;99.90;;;;;;615981;233;26556;-67
2022/08/20 09:17:52;;;;;;;9.35;8.45;;;22.30;99.90;;;;;;615712;233;26787;-67
2022/08/20 09:20:19;;;;;;;8.07;7.43;;;22.30;99.90;;;;;;615655;233;26560;-67
2022/08/20 09:22:46;;;;;;;7.75;7.07;;;22.40;99.90;;;;;;615570;233;26844;-67
2022/08/20 09:25:13;;;;;;;9.18;8.27;;;22.30;99.90;;;;;;615603;233;26559;-67
2022/08/20 09:27:41;;;;;;;9.38;8.48;;;22.40;99.90;;;;;;617026;231;26572;-67
2022/08/20 09:30:10;;;;;;;8.73;7.85;;;22.30;99.90;;;;;;615015;233;26581;-67
2022/08/20 09:32:37;;;;;;;8.50;7.70;;;22.30;99.90;;;;;;612455;229;26630;-68
2022/08/20 09:35:05;;;;;;;6.55;5.93;;;22.40;99.90;;;;;;614247;231;27304;-67
2022/08/20 09:37:32;;;;;;;7.00;6.45;;;22.30;99.90;;;;;;621087;231;26943;-67
2022/08/20 09:40:00;;;;;;;8.63;7.78;;;22.30;99.90;;;;;;621150;231;26620;-67
2022/08/20 09:42:28;;;;;;;9.50;8.60;;;22.30;99.90;;;;;;621093;231;26863;-67
2022/08/20 09:44:55;;;;;;;9.13;8.32;;;22.00;99.90;;;;;;615056;231;26592;-67
2022/08/20 09:47:23;;;;;;;9.32;8.00;;;21.70;99.90;;;;;;616640;231;26568;-68
2022/08/20 09:49:51;;;;;;;9.23;8.32;;;21.80;99.90;;;;;;622189;230;26567;-68
2022/08/20 09:52:25;;;;;;;9.25;8.27;;;21.80;99.90;;;;;;613319;232;26574;-67
2022/08/20 09:54:53;;;;;;;8.88;7.87;;;22.10;99.90;;;;;;617438;231;26593;-67
2022/08/20 09:57:19;;;;;;;7.53;6.85;;;22.30;99.90;;;;;;621482;231;27250;-67
2022/08/20 09:59:46;;;;;;;7.28;6.55;;;22.40;99.90;;;;;;621670;231;26625;-67
2022/08/20 10:02:14;;;;;;;9.30;8.50;;;22.80;99.90;;;;;;620894;230;26843;-67
2022/08/20 10:04:42;;;;;;;9.38;8.50;;;22.80;99.90;;;;;;616065;233;26588;-67
2022/08/20 10:07:09;;;;;;;8.65;7.93;;;22.70;99.90;;;;;;614232;233;26630;-67
2022/08/20 10:09:37;;;;;;;9.15;8.25;;;22.80;99.90;;;;;;612709;233;26804;-67
2022/08/20 10:12:03;;;;;;;8.63;7.90;;;23.10;99.90;;;;;;612634;233;26583;-66
2022/08/20 10:14:32;;;;;;;9.32;8.43;;;22.80;99.90;;;;;;612552;234;26587;-66
2022/08/20 10:16:59;;;;;;;8.60;7.85;;;22.80;99.90;;;;;;612986;230;26574;-66
2022/08/20 10:19:27;;;;;;;8.65;7.78;;;23.30;99.90;;;;;;615494;232;26611;-67
2022/08/20 10:21:55;;;;;;;8.20;7.45;;;23.30;99.90;;;;;;615665;232;26605;-66
2022/08/20 10:24:22;;;;;;;8.18;7.37;;;23.30;99.90;;;;;;615426;234;26573;-66
2022/08/20 10:26:50;;;;;;;8.50;7.70;;;23.20;99.90;;;;;;615385;234;27225;-66
2022/08/20 10:29:17;;;;;;;8.10;7.40;;;23.00;99.90;;;;;;613115;233;26567;-66
2022/08/20 10:31:45;;;;;;;7.70;6.90;;;23.20;99.90;;;;;;612175;233;26927;-66
2022/08/20 10:34:12;;;;;;;7.97;7.18;;;23.20;99.90;;;;;;612295;235;26837;-66
2022/08/20 10:36:39;;;;;;;8.38;7.45;;;23.30;99.90;;;;;;612463;234;26633;-67
2022/08/20 10:39:06;;;;;;;7.05;6.45;;;23.30;99.90;;;;;;612412;235;26831;-67
2022/08/20 10:41:34;;;;;;;7.50;6.85;;;23.40;99.90;;;;;;612424;234;26616;-67
2022/08/20 10:44:01;;;;;;;7.20;6.60;;;23.20;99.90;;;;;;618111;231;26858;-67
2022/08/20 10:46:28;;;;;;;7.62;6.78;;;23.30;99.90;;;;;;623760;231;26574;-67
2022/08/20 10:48:56;;;;;;;7.07;6.47;;;23.70;99.90;;;;;;623706;230;26565;-67
2022/08/20 10:51:24;;;;;;;7.20;6.60;;;23.40;99.90;;;;;;623674;230;26560;-67
2022/08/20 10:53:52;;;;;;;7.30;6.62;;;23.50;99.90;;;;;;623657;230;26549;-67
2022/08/20 10:56:20;;;;;;;7.65;7.00;;;23.60;99.90;;;;;;623693;230;26541;-68
2022/08/20 10:58:47;;;;;;;7.70;6.90;;;23.60;99.90;;;;;;624685;228;26563;-68
2022/08/20 11:01:14;;;;;;;6.40;5.87;;;23.70;99.90;;;;;;625066;229;26567;-68
2022/08/20 11:03:42;;;;;;;7.40;6.60;;;23.60;99.90;;;;;;624691;230;26814;-67
2022/08/20 11:06:09;;;;;;;104.35;26.73;;;23.90;99.90;;;;;;624741;230;26604;-68
2022/08/20 11:08:36;;;;;;;138.98;38.13;;;23.90;99.90;;;;;;624338;230;26573;-68
2022/08/20 11:11:03;;;;;;;139.80;37.80;;;23.90;99.90;;;;;;624303;230;26582;-67
2022/08/20 11:13:30;;;;;;;108.40;31.62;;;23.80;99.90;;;;;;624327;230;26567;-67
2022/08/20 11:15:58;;;;;;;75.60;26.58;;;23.90;99.90;;;;;;624293;230;27232;-68
2022/08/20 11:18:26;;;;;;;62.00;21.92;;;23.80;99.90;;;;;;621951;230;27179;-67
2022/08/20 11:20:53;;;;;;;33.90;16.55;;;23.70;99.90;;;;;;615816;233;26603;-67
2022/08/20 11:23:20;;;;;;;42.38;16.85;;;23.70;99.80;;;;;;615085;233;26626;-67
2022/08/20 11:25:47;;;;;;;38.92;16.35;;;23.70;99.90;;;;;;612731;233;26580;-67
2022/08/20 11:28:15;;;;;;;43.53;17.42;;;23.50;99.10;;;;;;618728;231;26531;-67
2022/08/20 11:30:45;;;;;;;31.87;12.30;;;23.60;99.30;;;;;;612591;233;26608;-67
2022/08/20 11:33:11;;;;;;;42.92;14.05;;;23.60;99.20;;;;;;613067;234;26537;-67
2022/08/20 11:35:38;;;;;;;24.85;11.98;;;23.70;98.90;;;;;;612411;233;26826;-67
2022/08/20 11:38:05;;;;;;;24.80;10.38;;;23.40;98.40;;;;;;612419;235;26636;-67
2022/08/20 11:40:32;;;;;;;20.50;9.55;;;23.50;98.90;;;;;;612454;233;27023;-67
2022/08/20 11:43:00;;;;;;;25.23;10.57;;;23.50;98.40;;;;;;612498;234;26613;-66
2022/08/20 11:45:27;;;;;;;9.93;6.30;;;23.40;97.80;;;;;;612525;235;26836;-67
2022/08/20 11:47:54;;;;;;;20.98;9.70;;;23.20;97.80;;;;;;612507;233;26556;-66
2022/08/20 11:50:21;;;;;;;14.20;7.53;;;23.10;97.90;;;;;;612484;233;26941;-67
2022/08/20 11:52:48;;;;;;;17.95;9.10;;;23.10;97.90;;;;;;612500;235;26627;-67
2022/08/20 11:55:16;;;;;;;19.95;9.73;;;23.10;97.80;;;;;;612493;233;26847;-66
2022/08/20 11:57:44;;;;;;;16.05;7.30;;;23.10;97.60;;;;;;612424;235;26608;-66
2022/08/20 12:00:13;;;;;;;15.77;8.13;;;23.10;97.30;;;;;;612522;235;26616;-67
2022/08/20 12:02:40;;;;;;;15.05;7.32;;;23.20;97.30;;;;;;612619;235;26605;-66
2022/08/20 12:05:08;;;;;;;16.27;8.32;;;23.20;97.40;;;;;;612794;233;26856;-67
2022/08/20 12:07:35;;;;;;;14.45;7.55;;;23.20;97.30;;;;;;612440;235;26828;-66
2022/08/20 12:10:02;;;;;;;13.00;7.80;;;23.20;97.70;;;;;;613227;232;26620;-66
2022/08/20 12:12:29;;;;;;;10.07;7.25;;;23.20;97.70;;;;;;613793;234;26622;-66
2022/08/20 12:14:57;;;;;;;5.53;4.80;;;23.20;98.10;;;;;;613484;232;26588;-66
2022/08/20 12:17:24;;;;;;;15.73;7.85;;;23.30;98.40;;;;;;613261;232;26888;-66
2022/08/20 12:19:51;;;;;;;7.00;5.80;;;23.30;99.00;;;;;;613021;233;26606;-66
2022/08/20 12:22:18;;;;;;;8.77;6.03;;;23.30;98.60;;;;;;613228;233;26849;-66
2022/08/20 12:24:45;;;;;;;8.20;6.45;;;23.20;98.40;;;;;;612967;234;26632;-67
2022/08/20 12:27:15;;;;;;;7.75;6.57;;;23.00;98.40;;;;;;613099;233;26841;-67
2022/08/20 12:29:43;;;;;;;3.92;3.62;;;23.10;98.50;;;;;;612578;234;26575;-67
2022/08/20 12:32:10;;;;;;;4.25;3.95;;;23.10;98.50;;;;;;612688;229;26593;-67
2022/08/20 12:34:38;;;;;;;4.78;4.35;;;23.20;98.30;;;;;;612743;234;26592;-67
2022/08/20 12:37:08;;;;;;;5.57;4.75;;;23.20;98.30;;;;;;612720;234;26813;-67
2022/08/20 12:39:35;;;;;;;4.95;4.45;;;23.30;97.80;;;;;;612794;234;26834;-67
2022/08/20 12:42:03;;;;;;;4.47;4.10;;;23.30;97.20;;;;;;612613;231;26672;-67
2022/08/20 12:44:31;;;;;;;4.72;4.32;;;23.30;97.20;;;;;;612816;235;26595;-67
2022/08/20 12:47:06;;;;;;;4.60;4.30;;;23.40;96.90;;;;;;612512;234;27185;-67
2022/08/20 12:49:33;;;;;;;4.15;3.85;;;23.40;96.90;;;;;;612196;235;26620;-67
2022/08/20 12:52:02;;;;;;;4.60;4.28;;;23.40;96.60;;;;;;612389;233;26644;-67
2022/08/20 12:54:29;;;;;;;3.92;3.62;;;23.30;96.60;;;;;;612521;234;26843;-67
2022/08/20 12:56:57;;;;;;;4.35;3.95;;;23.10;97.00;;;;;;612411;235;26665;-67